Decoded Metar for KVTI (VINTON in IA, USA) (IATA:VTI) | Meteo·Mobile Aviation Weather
aviador You're here:

KVTI Decoded Metar

VINTON in IA, USA
Report Time2019-04-23 15:55:00
UTC Time2019-04-23 16:10:35
Flight Rules vfr VFR
Wind020° at 08 kt
W.Decomp.*RWY 34: 6.2 kt HW 5.0 kt RCW
RWY 09: 2.6 kt HW 7.6 kt LCW
Visibility9999 m
Phenomena:N/A
Clouds:Scattered 019 Hf
Expected CloudBase > 2,400 ft AGL from Temp-Dew spread
CeilingNone
Temp13°C (ISA -0)
Dew Point07°C (67% RH)
AAT9.4°C
QNH1020 hPa
Density Alt699 ft
Elevation837 ft
Report Wrong Elevation
Raw Report
KVTI 231555Z AUTO 02008KT 10SM SCT019 13/07 A3011 RMK AO2
T01320073=

Extra information for KVTI:More info

Metar Taf Metar & Taf Last 4 Metars F.Rules Stats Wind Profile Meteogram Temp Stats Airport Information Weather charts Add Link Nearby VenuesMetar ALERT Operation Metar Decoded Social comments

AIRNAV info for KVTI